createdAt,value
2023-03-17T00:01:18.720Z,100652.19
2023-03-17T00:03:47.602Z,100653.25
2023-03-17T00:06:17.850Z,100655.00
2023-03-17T00:08:46.324Z,100655.09
2023-03-17T00:11:16.074Z,100649.50
2023-03-17T00:13:44.596Z,100642.19
2023-03-17T00:16:20.569Z,100646.53
2023-03-17T00:18:48.246Z,100653.31
2023-03-17T00:21:17.737Z,100649.81
2023-03-17T00:23:50.610Z,100656.69
2023-03-17T00:26:19.579Z,100649.25
2023-03-17T00:28:47.016Z,100640.16
2023-03-17T00:31:18.190Z,100646.06
2023-03-17T00:33:46.439Z,100636.66
2023-03-17T00:36:17.102Z,100641.81
2023-03-17T00:38:44.517Z,100641.72
2023-03-17T00:41:12.316Z,100632.63
2023-03-17T00:43:39.789Z,100626.81
2023-03-17T00:46:24.945Z,100621.13
2023-03-17T00:48:51.869Z,100612.78
2023-03-17T00:51:18.544Z,100609.53
2023-03-17T00:53:45.763Z,100617.25
2023-03-17T00:56:15.982Z,100612.34
2023-03-17T00:58:43.258Z,100601.06
2023-03-17T01:01:10.717Z,100608.06
2023-03-17T01:03:38.839Z,100610.38
2023-03-17T01:06:10.962Z,100613.88
2023-03-17T01:08:39.179Z,100622.84
2023-03-17T01:11:06.616Z,100624.09
2023-03-17T01:13:34.220Z,100622.91
2023-03-17T01:16:01.076Z,100624.91
2023-03-17T01:18:27.732Z,100627.34
2023-03-17T01:20:54.571Z,100622.84
2023-03-17T01:23:22.025Z,100620.78
2023-03-17T01:25:49.082Z,100627.56
2023-03-17T01:28:18.149Z,100621.44
2023-03-17T01:30:45.364Z,100621.03
2023-03-17T01:33:13.412Z,100616.56
2023-03-17T01:35:41.511Z,100616.03
2023-03-17T01:38:09.814Z,100605.78
2023-03-17T01:40:43.374Z,100606.63
2023-03-17T01:43:09.773Z,100595.81
2023-03-17T01:46:13.897Z,100601.06
2023-03-17T01:48:49.124Z,100596.13
2023-03-17T01:51:20.943Z,100593.50
2023-03-17T01:53:51.083Z,100595.16
2023-03-17T01:56:18.525Z,100592.66
2023-03-17T01:58:46.986Z,100593.31
2023-03-17T02:01:14.139Z,100586.41
2023-03-17T02:03:42.511Z,100595.28
2023-03-17T02:06:09.810Z,100596.81
2023-03-17T02:08:36.331Z,100590.50
2023-03-17T02:11:05.024Z,100582.75
2023-03-17T02:13:32.880Z,100592.03
2023-03-17T02:15:59.412Z,100576.38
2023-03-17T02:18:25.937Z,100576.63
2023-03-17T02:21:27.190Z,100577.56
2023-03-17T02:23:53.780Z,100580.00
2023-03-17T02:26:24.565Z,100567.31
2023-03-17T02:28:51.050Z,100554.72
2023-03-17T02:31:17.591Z,100563.25
2023-03-17T02:33:44.074Z,100563.47
2023-03-17T02:36:10.929Z,100559.31
2023-03-17T02:38:37.808Z,100561.06
2023-03-17T02:41:06.350Z,100564.34
2023-03-17T02:43:33.151Z,100563.38
2023-03-17T02:45:59.677Z,100570.81
2023-03-17T02:48:26.394Z,100568.09
2023-03-17T02:50:52.908Z,100556.28
2023-03-17T02:53:19.768Z,100556.50
2023-03-17T02:55:46.279Z,100561.53
2023-03-17T02:58:12.793Z,100558.34
2023-03-17T03:00:40.434Z,100568.41
2023-03-17T03:03:07.025Z,100581.66
2023-03-17T03:05:33.606Z,100583.94
2023-03-17T03:08:00.263Z,100588.22
2023-03-17T03:10:26.986Z,100582.50
2023-03-17T03:12:53.647Z,100581.19
2023-03-17T03:15:20.862Z,100587.38
2023-03-17T03:17:47.583Z,100571.53
2023-03-17T03:20:14.490Z,100565.84
2023-03-17T03:22:41.173Z,100555.00
2023-03-17T03:25:08.705Z,100555.31
2023-03-17T03:27:36.047Z,100557.38
2023-03-17T03:30:03.700Z,100564.81
2023-03-17T03:32:30.759Z,100554.88
2023-03-17T03:34:57.494Z,100557.50
2023-03-17T03:37:24.154Z,100549.06
2023-03-17T03:39:51.380Z,100543.16
2023-03-17T03:42:18.071Z,100527.94
2023-03-17T03:44:44.548Z,100528.06
2023-03-17T03:47:11.435Z,100522.28
2023-03-17T03:49:37.976Z,100521.97
2023-03-17T03:52:04.747Z,100521.66
2023-03-17T03:54:31.305Z,100510.31
2023-03-17T03:56:57.780Z,100515.91
2023-03-17T03:59:24.274Z,100504.88
2023-03-17T04:01:50.734Z,100493.28
2023-03-17T04:04:17.544Z,100489.00
2023-03-17T04:06:44.132Z,100501.56
2023-03-17T04:09:10.636Z,100493.41
2023-03-17T04:11:37.195Z,100497.25
2023-03-17T04:14:04.093Z,100498.50
2023-03-17T04:16:30.674Z,100503.09
2023-03-17T04:18:57.663Z,100504.13
2023-03-17T04:21:24.328Z,100510.34
2023-03-17T04:23:50.857Z,100524.56
2023-03-17T04:26:18.568Z,100527.22
2023-03-17T04:28:45.082Z,100521.63
2023-03-17T04:31:12.375Z,100529.63
2023-03-17T04:33:39.564Z,100517.41
2023-03-17T04:36:07.716Z,100502.88
2023-03-17T04:38:34.297Z,100488.78
2023-03-17T04:41:00.785Z,100486.38
2023-03-17T04:43:27.866Z,100493.03
2023-03-17T04:45:54.407Z,100503.63
2023-03-17T04:48:20.990Z,100496.53
2023-03-17T04:50:47.903Z,100486.25
2023-03-17T04:53:14.578Z,100492.38
2023-03-17T04:55:41.297Z,100505.59
2023-03-17T04:58:09.175Z,100511.94
2023-03-17T05:00:38.708Z,100507.34
2023-03-17T05:03:20.034Z,100501.34
2023-03-17T05:05:52.673Z,100498.50
2023-03-17T05:08:20.075Z,100490.63
2023-03-17T05:10:46.644Z,100500.56
2023-03-17T05:13:13.170Z,100500.13
2023-03-17T05:15:40.175Z,100497.28
2023-03-17T05:18:06.683Z,100496.06
2023-03-17T05:20:33.211Z,100497.59
2023-03-17T05:22:59.682Z,100506.63
2023-03-17T05:25:26.169Z,100497.16
2023-03-17T05:27:52.664Z,100492.69
2023-03-17T05:30:19.230Z,100486.69
2023-03-17T05:32:46.788Z,100474.66
2023-03-17T05:35:13.456Z,100474.22
2023-03-17T05:37:40.295Z,100465.50
2023-03-17T05:40:08.294Z,100452.31
2023-03-17T05:42:35.137Z,100455.78
2023-03-17T05:45:02.248Z,100454.19
2023-03-17T05:47:28.917Z,100453.09
2023-03-17T05:49:56.044Z,100457.31
2023-03-17T05:52:22.747Z,100450.25
2023-03-17T05:54:49.521Z,100462.78
2023-03-17T05:57:16.406Z,100463.44
2023-03-17T05:59:43.109Z,100463.56
2023-03-17T06:02:11.329Z,100460.28
2023-03-17T06:04:38.961Z,100462.91
2023-03-17T06:07:06.212Z,100466.41
2023-03-17T06:09:33.511Z,100462.34
2023-03-17T06:12:00.253Z,100465.09
2023-03-17T06:14:27.334Z,100460.19
2023-03-17T06:16:54.159Z,100458.00
2023-03-17T06:19:21.284Z,100450.03
2023-03-17T06:21:48.417Z,100441.31
2023-03-17T06:24:15.572Z,100440.25
2023-03-17T06:26:43.413Z,100441.41
2023-03-17T06:29:12.449Z,100445.78
2023-03-17T06:31:40.505Z,100447.59
2023-03-17T06:34:07.193Z,100435.81
2023-03-17T06:36:33.978Z,100441.41
2023-03-17T06:39:00.637Z,100445.16
2023-03-17T06:41:27.529Z,100454.03
2023-03-17T06:43:54.425Z,100449.97
2023-03-17T06:46:22.780Z,100460.38
2023-03-17T06:48:49.530Z,100453.59
2023-03-17T06:51:16.278Z,100443.66
2023-03-17T06:53:42.964Z,100445.53
2023-03-17T06:56:23.531Z,100445.81
2023-03-17T06:58:54.105Z,100445.31
2023-03-17T07:01:20.841Z,100439.28
2023-03-17T07:03:47.670Z,100448.38
2023-03-17T07:06:14.350Z,100455.81
2023-03-17T07:08:41.604Z,100463.06
2023-03-17T07:11:08.367Z,100460.06
2023-03-17T07:13:37.134Z,100446.06
2023-03-17T07:16:04.516Z,100457.78
2023-03-17T07:18:34.288Z,100467.75
2023-03-17T07:21:01.795Z,100473.34
2023-03-17T07:23:29.576Z,100468.75
2023-03-17T07:25:59.829Z,100467.81
2023-03-17T07:28:26.881Z,100470.97
2023-03-17T07:30:53.601Z,100450.53
2023-03-17T07:33:23.144Z,100457.13
2023-03-17T07:35:50.759Z,100459.31
2023-03-17T07:38:19.066Z,100462.28
2023-03-17T07:40:48.881Z,100451.63
2023-03-17T07:43:16.665Z,100452.25
2023-03-17T07:45:44.378Z,100444.31
2023-03-17T07:48:11.168Z,100443.84
2023-03-17T07:50:38.147Z,100438.09
2023-03-17T07:53:05.371Z,100436.75
2023-03-17T07:55:33.111Z,100434.91
2023-03-17T07:58:00.033Z,100442.38
2023-03-17T08:00:29.070Z,100436.38
2023-03-17T08:03:08.974Z,100439.38
2023-03-17T08:05:36.299Z,100436.38
2023-03-17T08:08:03.013Z,100431.81
2023-03-17T08:10:30.201Z,100424.03
2023-03-17T08:12:57.051Z,100417.88
2023-03-17T08:15:23.804Z,100415.88
2023-03-17T08:17:50.506Z,100418.16
2023-03-17T08:20:17.335Z,100425.53
2023-03-17T08:22:44.064Z,100418.44
2023-03-17T08:25:11.601Z,100416.38
2023-03-17T08:27:38.666Z,100418.47
2023-03-17T08:30:05.943Z,100433.09
2023-03-17T08:32:33.054Z,100429.81
2023-03-17T08:35:00.336Z,100437.94
2023-03-17T08:37:26.861Z,100439.22
2023-03-17T08:39:53.336Z,100441.97
2023-03-17T08:42:19.851Z,100436.22
2023-03-17T08:44:46.480Z,100427.88
2023-03-17T08:47:13.017Z,100434.00
2023-03-17T08:49:39.497Z,100424.91
2023-03-17T08:52:06.055Z,100414.53
2023-03-17T08:54:34.546Z,100411.59
2023-03-17T08:57:01.747Z,100410.28
2023-03-17T08:59:28.391Z,100408.13
2023-03-17T09:01:55.753Z,100407.53
2023-03-17T09:04:23.389Z,100393.44
2023-03-17T09:07:02.689Z,100400.72
2023-03-17T09:09:31.019Z,100397.56
2023-03-17T09:11:57.493Z,100393.03
2023-03-17T09:14:24.700Z,100394.16
2023-03-17T09:16:52.187Z,100398.53
2023-03-17T09:19:18.962Z,100398.63
2023-03-17T09:21:46.031Z,100400.38
2023-03-17T09:24:13.624Z,100393.81
2023-03-17T09:26:40.420Z,100393.19
2023-03-17T09:29:08.228Z,100398.69
2023-03-17T09:31:36.561Z,100404.75
2023-03-17T09:34:05.163Z,100415.84
2023-03-17T09:36:33.141Z,100406.53
2023-03-17T09:39:00.653Z,100405.00
2023-03-17T09:41:48.063Z,100401.16
2023-03-17T09:44:26.500Z,100399.97
2023-03-17T09:47:02.458Z,100394.63
2023-03-17T09:49:44.823Z,100398.31
2023-03-17T09:52:25.124Z,100384.09
2023-03-17T09:54:51.812Z,100379.94
2023-03-17T09:57:35.603Z,100376.69
2023-03-17T10:00:14.980Z,100380.31
2023-03-17T10:02:43.092Z,100374.59
2023-03-17T10:05:21.547Z,100372.44
2023-03-17T10:07:57.137Z,100372.84
2023-03-17T10:10:45.430Z,100362.34
2023-03-17T10:13:28.322Z,100358.97
2023-03-17T10:16:03.413Z,100364.09
2023-03-17T10:18:39.790Z,100360.78
2023-03-17T10:21:09.586Z,100351.47
2023-03-17T10:23:36.900Z,100351.44
2023-03-17T10:26:21.118Z,100358.66
2023-03-17T10:28:47.818Z,100341.19
2023-03-17T10:31:18.644Z,100346.56
2023-03-17T10:33:49.802Z,100353.03
2023-03-17T10:36:31.586Z,100363.63
2023-03-17T10:38:58.739Z,100357.50
2023-03-17T10:41:25.938Z,100357.28
2023-03-17T10:43:53.591Z,100359.78
2023-03-17T10:46:24.159Z,100350.25
2023-03-17T10:48:54.195Z,100345.56
2023-03-17T10:51:30.842Z,100356.09
2023-03-17T10:54:01.925Z,100351.97
2023-03-17T10:56:35.453Z,100353.63
2023-03-17T10:59:08.372Z,100363.06
2023-03-17T11:01:40.254Z,100365.22
2023-03-17T11:04:28.505Z,100353.94
2023-03-17T11:06:58.275Z,100354.09
2023-03-17T11:09:28.088Z,100356.53
2023-03-17T11:12:04.366Z,100349.78
2023-03-17T11:14:31.978Z,100353.97
2023-03-17T11:17:04.415Z,100348.06
2023-03-17T11:20:19.012Z,100347.06
2023-03-17T11:22:59.330Z,100342.94
2023-03-17T11:25:28.348Z,100337.84
2023-03-17T11:28:07.910Z,100332.72
2023-03-17T11:30:44.458Z,100317.38
2023-03-17T11:33:11.494Z,100321.53
2023-03-17T11:35:55.502Z,100323.94
2023-03-17T11:38:29.931Z,100319.44
2023-03-17T11:41:29.253Z,100334.47
2023-03-17T11:44:18.309Z,100336.03
2023-03-17T11:46:48.901Z,100326.56
2023-03-17T11:49:20.372Z,100325.75
2023-03-17T11:52:03.465Z,100319.78
2023-03-17T11:55:27.356Z,100319.88
2023-03-17T11:57:59.875Z,100318.94
2023-03-17T12:00:36.673Z,100323.97
2023-03-17T12:03:20.053Z,100320.56
2023-03-17T12:05:54.487Z,100316.34
2023-03-17T12:08:35.950Z,100313.81
2023-03-17T12:11:08.438Z,100311.31
2023-03-17T12:13:54.923Z,100310.50
2023-03-17T12:16:38.231Z,100305.47
2023-03-17T12:19:19.358Z,100297.88
2023-03-17T12:22:06.465Z,100288.56
2023-03-17T12:24:38.693Z,100287.84
2023-03-17T12:27:28.400Z,100285.59
2023-03-17T12:29:59.189Z,100284.97
2023-03-17T12:32:36.003Z,100285.22
2023-03-17T12:35:20.312Z,100271.75
2023-03-17T12:37:49.157Z,100278.81
2023-03-17T12:40:26.209Z,100275.56
2023-03-17T12:43:11.612Z,100275.66
2023-03-17T12:45:46.128Z,100276.75
2023-03-17T12:48:31.609Z,100273.34
2023-03-17T12:51:31.047Z,100270.75
2023-03-17T12:54:00.100Z,100271.53
2023-03-17T12:56:33.072Z,100281.75
2023-03-17T12:59:08.940Z,100285.94
2023-03-17T13:01:57.243Z,100281.53
2023-03-17T13:04:36.046Z,100280.59
2023-03-17T13:07:12.760Z,100278.00
2023-03-17T13:09:54.754Z,100281.34
2023-03-17T13:12:39.507Z,100277.06
2023-03-17T13:15:28.177Z,100263.28
2023-03-17T13:18:16.048Z,100258.97
2023-03-17T13:20:44.555Z,100270.88
2023-03-17T13:23:13.730Z,100276.03
2023-03-17T13:25:45.435Z,100282.88
2023-03-17T13:28:12.170Z,100287.19
2023-03-17T13:30:38.930Z,100288.94
2023-03-17T13:33:09.556Z,100293.97
2023-03-17T13:35:41.689Z,100289.66
2023-03-17T13:38:40.946Z,100276.78
2023-03-17T13:41:35.852Z,100276.66
2023-03-17T13:44:15.609Z,100276.59
2023-03-17T13:46:46.837Z,100270.53
2023-03-17T13:49:26.611Z,100276.47
2023-03-17T13:52:03.417Z,100271.34
2023-03-17T13:54:40.478Z,100279.88
2023-03-17T13:57:26.251Z,100274.75
2023-03-17T14:00:14.989Z,100273.88
2023-03-17T14:02:43.357Z,100274.75
2023-03-17T14:05:24.307Z,100277.25
2023-03-17T14:07:56.904Z,100274.75
2023-03-17T14:10:27.035Z,100267.88
2023-03-17T14:13:38.128Z,100260.25
2023-03-17T14:16:14.033Z,100257.59
2023-03-17T14:18:46.398Z,100261.91
2023-03-17T14:21:25.496Z,100260.16
2023-03-17T14:23:56.553Z,100255.00
2023-03-17T14:26:26.563Z,100251.53
2023-03-17T14:28:53.637Z,100254.06
2023-03-17T14:31:23.726Z,100261.72
2023-03-17T14:33:54.836Z,100256.66
2023-03-17T14:36:21.883Z,100254.09
2023-03-17T14:38:53.752Z,100256.69
2023-03-17T14:41:23.241Z,100261.91
2023-03-17T14:43:52.123Z,100257.66
2023-03-17T14:46:23.970Z,100261.97
2023-03-17T14:49:14.089Z,100262.84
2023-03-17T14:51:41.967Z,100256.94
2023-03-17T14:54:14.249Z,100264.66
2023-03-17T14:56:45.646Z,100255.28
2023-03-17T14:59:25.258Z,100260.34
2023-03-17T15:01:56.853Z,100259.44
2023-03-17T15:04:26.121Z,100253.34
2023-03-17T15:06:55.232Z,100258.38
2023-03-17T15:09:34.481Z,100258.25
2023-03-17T15:12:07.138Z,100264.19
2023-03-17T15:14:39.224Z,100263.28
2023-03-17T15:17:16.284Z,100261.56
2023-03-17T15:19:45.479Z,100262.38
2023-03-17T15:22:23.864Z,100258.03
2023-03-17T15:25:02.714Z,100264.72
2023-03-17T15:27:34.468Z,100258.69
2023-03-17T15:30:01.064Z,100265.44
2023-03-17T15:32:28.772Z,100267.91
2023-03-17T15:34:59.086Z,100266.91
2023-03-17T15:37:31.829Z,100266.00
2023-03-17T15:39:59.537Z,100265.00
2023-03-17T15:42:32.490Z,100245.34
2023-03-17T15:45:01.849Z,100224.81
2023-03-17T15:47:31.772Z,100208.53
2023-03-17T15:50:24.150Z,100174.34
2023-03-17T15:52:55.843Z,100149.53
2023-03-17T15:55:29.312Z,100165.59
2023-03-17T15:57:56.418Z,100180.00
2023-03-17T16:00:25.323Z,100213.91
2023-03-17T16:02:58.710Z,100242.63
2023-03-17T16:05:29.117Z,100253.53
2023-03-17T16:07:55.816Z,100248.31
2023-03-17T16:10:31.692Z,100241.34
2023-03-17T16:12:58.894Z,100242.97
2023-03-17T16:15:27.905Z,100236.91
2023-03-17T16:17:59.335Z,100247.97
2023-03-17T16:20:31.364Z,100244.50
2023-03-17T16:23:04.670Z,100241.00
2023-03-17T16:25:32.947Z,100235.78
2023-03-17T16:28:01.833Z,100237.28
2023-03-17T16:30:31.653Z,100245.69
2023-03-17T16:33:08.663Z,100245.56
2023-03-17T16:35:35.714Z,100254.72
2023-03-17T16:38:02.596Z,100252.75
2023-03-17T16:40:35.748Z,100259.44
2023-03-17T16:43:15.806Z,100257.47
2023-03-17T16:45:50.595Z,100261.44
2023-03-17T16:48:18.097Z,100258.72
2023-03-17T16:50:44.807Z,100267.00
2023-03-17T16:53:11.501Z,100259.19
2023-03-17T16:55:39.376Z,100256.38
2023-03-17T16:58:29.356Z,100251.88
2023-03-17T17:01:06.201Z,100259.38
2023-03-17T17:03:33.079Z,100254.00
2023-03-17T17:05:59.742Z,100258.03
2023-03-17T17:08:26.596Z,100253.53
2023-03-17T17:10:53.253Z,100253.31
2023-03-17T17:13:19.981Z,100249.66
2023-03-17T17:15:46.736Z,100243.34
2023-03-17T17:18:17.105Z,100253.31
2023-03-17T17:20:45.418Z,100253.00
2023-03-17T17:23:16.702Z,100249.38
2023-03-17T17:25:43.807Z,100244.03
2023-03-17T17:28:11.579Z,100235.25
2023-03-17T17:30:38.228Z,100241.75
2023-03-17T17:33:05.211Z,100250.84
2023-03-17T17:35:33.186Z,100257.41
2023-03-17T17:38:01.855Z,100263.03
2023-03-17T17:40:29.649Z,100256.75
2023-03-17T17:42:57.661Z,100256.47
2023-03-17T17:45:24.624Z,100261.19
2023-03-17T17:47:51.417Z,100266.09
2023-03-17T17:50:25.930Z,100276.91
2023-03-17T17:52:53.050Z,100280.06
2023-03-17T17:55:20.023Z,100277.19
2023-03-17T17:57:46.754Z,100282.09
2023-03-17T18:00:16.328Z,100293.69
2023-03-17T18:02:43.793Z,100292.72
2023-03-17T18:05:12.276Z,100288.31
2023-03-17T18:07:39.660Z,100294.03
2023-03-17T18:10:06.964Z,100299.56
2023-03-17T18:12:33.656Z,100303.59
2023-03-17T18:15:00.325Z,100304.06
2023-03-17T18:17:27.224Z,100299.66
2023-03-17T18:19:54.057Z,100307.09
2023-03-17T18:22:21.499Z,100306.16
2023-03-17T18:24:49.119Z,100300.09
2023-03-17T18:27:16.756Z,100302.50
2023-03-17T18:29:43.912Z,100295.69
2023-03-17T18:32:12.324Z,100299.78
2023-03-17T18:34:46.152Z,100301.28
2023-03-17T18:37:15.162Z,100307.97
2023-03-17T18:39:42.699Z,100295.09
2023-03-17T18:42:09.614Z,100311.03
2023-03-17T18:44:36.519Z,100307.59
2023-03-17T18:47:03.815Z,100318.44
2023-03-17T18:49:30.658Z,100318.25
2023-03-17T18:51:59.526Z,100313.00
2023-03-17T18:54:28.032Z,100313.72
2023-03-17T18:56:55.274Z,100298.19
2023-03-17T18:59:21.985Z,100300.00
2023-03-17T19:01:48.730Z,100293.88
2023-03-17T19:04:15.500Z,100283.38
2023-03-17T19:06:42.662Z,100282.31
2023-03-17T19:09:10.672Z,100272.97
2023-03-17T19:11:39.176Z,100266.91
2023-03-17T19:14:08.423Z,100268.44
2023-03-17T19:16:36.088Z,100264.09
2023-03-17T19:19:03.088Z,100263.09
2023-03-17T19:21:29.827Z,100264.56
2023-03-17T19:23:59.161Z,100262.69
2023-03-17T19:26:27.010Z,100270.06
2023-03-17T19:28:56.159Z,100272.31
2023-03-17T19:31:24.680Z,100268.72
2023-03-17T19:33:51.908Z,100273.63
2023-03-17T19:36:18.797Z,100250.72
2023-03-17T19:38:45.727Z,100236.09
2023-03-17T19:41:13.382Z,100230.16
2023-03-17T19:43:41.584Z,100234.28
2023-03-17T19:46:11.118Z,100224.81
2023-03-17T19:48:38.311Z,100230.63
2023-03-17T19:51:05.381Z,100221.13
2023-03-17T19:53:32.235Z,100223.66
2023-03-17T19:55:58.935Z,100225.22
2023-03-17T19:58:25.817Z,100221.81
2023-03-17T20:00:52.924Z,100231.88
2023-03-17T20:03:19.573Z,100236.66
2023-03-17T20:05:46.439Z,100245.06
2023-03-17T20:08:14.492Z,100246.50
2023-03-17T20:10:41.233Z,100241.41
2023-03-17T20:13:08.090Z,100235.38
2023-03-17T20:15:34.973Z,100235.31
2023-03-17T20:18:01.765Z,100239.59
2023-03-17T20:20:28.479Z,100236.97
2023-03-17T20:22:55.592Z,100234.44
2023-03-17T20:25:22.414Z,100244.56
2023-03-17T20:27:50.409Z,100236.03
2023-03-17T20:30:19.858Z,100234.38
2023-03-17T20:32:46.531Z,100231.84
2023-03-17T20:35:13.634Z,100236.03
2023-03-17T20:37:40.362Z,100230.84
2023-03-17T20:40:09.853Z,100225.72
2023-03-17T20:42:36.651Z,100229.81
2023-03-17T20:45:03.674Z,100219.63
2023-03-17T20:47:31.035Z,100216.16
2023-03-17T20:49:58.907Z,100216.88
2023-03-17T20:52:29.502Z,100227.00
2023-03-17T20:54:56.734Z,100234.56
2023-03-17T20:57:23.474Z,100235.25
2023-03-17T20:59:51.828Z,100241.97
2023-03-17T21:02:19.010Z,100239.38
2023-03-17T21:04:47.994Z,100237.63
2023-03-17T21:07:16.464Z,100233.38
2023-03-17T21:09:43.308Z,100241.75
2023-03-17T21:12:16.218Z,100240.97
2023-03-17T21:14:42.964Z,100232.44
2023-03-17T21:17:11.149Z,100223.94
2023-03-17T21:19:38.051Z,100223.94
2023-03-17T21:22:05.477Z,100212.81
2023-03-17T21:24:35.331Z,100228.00
2023-03-17T21:27:04.185Z,100229.53
2023-03-17T21:29:33.813Z,100226.03
2023-03-17T21:32:00.930Z,100225.19
2023-03-17T21:34:29.908Z,100227.72
2023-03-17T21:36:59.758Z,100227.72
2023-03-17T21:39:29.525Z,100234.28
2023-03-17T21:41:57.443Z,100237.75
2023-03-17T21:44:24.407Z,100233.50
2023-03-17T21:46:51.144Z,100232.69
2023-03-17T21:49:18.740Z,100231.84
2023-03-17T21:51:46.627Z,100227.63
2023-03-17T21:54:14.290Z,100224.25
2023-03-17T21:56:41.773Z,100224.31
2023-03-17T21:59:10.875Z,100212.53
2023-03-17T22:01:41.641Z,100217.59
2023-03-17T22:04:09.162Z,100221.88
2023-03-17T22:06:35.856Z,100215.91
2023-03-17T22:09:04.349Z,100218.44
2023-03-17T22:11:31.369Z,100219.25
2023-03-17T22:13:58.545Z,100211.88
2023-03-17T22:16:25.671Z,100213.59
2023-03-17T22:18:52.778Z,100216.13
2023-03-17T22:21:21.343Z,100226.34
2023-03-17T22:23:48.253Z,100219.56
2023-03-17T22:26:20.823Z,100227.16
2023-03-17T22:28:49.413Z,100217.72
2023-03-17T22:31:22.089Z,100234.53
2023-03-17T22:33:54.009Z,100225.19
2023-03-17T22:36:21.930Z,100223.47
2023-03-17T22:38:48.860Z,100234.38
2023-03-17T22:41:21.693Z,100232.66
2023-03-17T22:43:48.381Z,100241.00
2023-03-17T22:46:15.705Z,100240.16
2023-03-17T22:48:42.530Z,100237.53
2023-03-17T22:51:13.682Z,100239.22
2023-03-17T22:53:41.153Z,100253.44
2023-03-17T22:56:09.906Z,100250.91
2023-03-17T22:58:37.064Z,100249.13
2023-03-17T23:01:06.377Z,100257.56
2023-03-17T23:03:33.908Z,100248.25
2023-03-17T23:06:02.326Z,100254.09
2023-03-17T23:08:31.392Z,100248.97
2023-03-17T23:11:00.554Z,100250.56
2023-03-17T23:13:27.649Z,100254.69
2023-03-17T23:15:54.572Z,100247.97
2023-03-17T23:18:21.479Z,100250.41
2023-03-17T23:23:14.904Z,100236.69
2023-03-17T23:25:41.645Z,100232.56
2023-03-17T23:28:09.671Z,100231.69
2023-03-17T23:30:37.047Z,100226.56
2023-03-17T23:33:04.774Z,100230.03
2023-03-17T23:35:32.113Z,100235.94
2023-03-17T23:38:03.899Z,100235.00
2023-03-17T23:40:31.831Z,100234.06
2023-03-17T23:42:58.767Z,100234.88
2023-03-17T23:45:25.823Z,100228.09
2023-03-17T23:47:52.869Z,100238.97
2023-03-17T23:50:20.889Z,100235.44
2023-03-17T23:52:48.040Z,100238.91
2023-03-17T23:55:15.984Z,100249.81
2023-03-17T23:57:44.120Z,100241.28
